Angola, Kansas
Current Conditions -  °F | °C
As of 12:52 PM on Friday 24 Oct 2014 (Local Time) from KCFV Reporting Station
Clear Clear  
Wind Chill: 73°   Ceiling: Unl
Heat Index: 73°   Visibility: 10mi
Dew Point: 60°   Wind: 9mph
Humidity: 64%   Direction: 190°S
Pressure: 30.07"   Gusts: NA
Location:  37.067°N, 95.5817°W
Report Text: KCFV 241752Z AUTO 19008KT 10SM CLR 23/16 A3007 RMK AO2 SLP180 T02280156 10233 20133 58012
Loading
Personal Weather Stations






























Interactive Weather Map
Tropical Storm Tracking
New forecast layout! Learn more

10-Day Weather Forecast

Advertisements
Track Severe Weather on mobile